Time;durP1;ratioP1;P1;durP2;ratioP2;P2;SDS_P1;SDS_P2;PMS_P1;PMS_P2;Temp;Humidity;BMP_temperature;BMP_pressure;BME280_temperature;BME280_humidity;BME280_pressure;Samples;Min_cycle;Max_cycle;Signal;HPM_P1;HPM_P2
2023/12/09 17:18:50;;;;;;;;;27.00;27.00;;;;;;;;5123402;27;1366185;-74
2023/12/09 17:21:16;;;;;;;;;29.75;24.00;;;;;;;;5149221;27;11442;-73
2023/12/09 17:23:41;;;;;;;;;24.75;23.00;;;;;;;;5150623;27;11417;-72
2023/12/09 17:26:06;;;;;;;;;33.50;31.25;;;;;;;;5149240;27;8782;-72
2023/12/09 17:28:32;;;;;;;;;28.25;25.50;;;;;;;;5148309;27;8818;-74
2023/12/09 17:30:57;;;;;;;;;20.00;16.25;;;;;;;;5148005;27;8802;-74
2023/12/09 17:33:22;;;;;;;;;25.75;23.25;;;;;;;;5149188;27;9613;-74
2023/12/09 17:35:48;;;;;;;;;32.25;27.25;;;;;;;;5149141;27;8870;-74
2023/12/09 17:38:13;;;;;;;;;29.00;26.00;;;;;;;;5153745;27;8843;-74
2023/12/09 17:40:38;;;;;;;;;49.25;42.75;;;;;;;;5135888;27;9613;-74
2023/12/09 17:43:04;;;;;;;;;31.75;27.75;;;;;;;;5148988;27;8769;-73
2023/12/09 17:45:29;;;;;;;;;29.75;28.75;;;;;;;;5148592;27;8769;-76
2023/12/09 17:47:57;;;;;;;;;32.75;28.00;;;;;;;;5148967;27;8801;-77
2023/12/09 17:50:22;;;;;;;;;29.50;29.25;;;;;;;;5148674;27;8808;-75
2023/12/09 17:52:47;;;;;;;;;53.25;35.50;;;;;;;;5148080;27;11589;-75
2023/12/09 17:55:12;;;;;;;;;30.50;27.00;;;;;;;;5148630;27;8901;-75
2023/12/09 17:57:38;;;;;;;;;27.00;23.25;;;;;;;;5149989;27;8809;-76
2023/12/09 18:00:04;;;;;;;;;28.50;24.00;;;;;;;;5148712;27;8766;-75
2023/12/09 18:02:29;;;;;;;;;27.00;23.25;;;;;;;;5148307;27;8866;-76
2023/12/09 18:04:54;;;;;;;;;30.00;26.50;;;;;;;;5148343;27;9501;-77
2023/12/09 18:07:20;;;;;;;;;23.75;22.00;;;;;;;;5148223;27;8867;-80
2023/12/09 18:09:45;;;;;;;;;28.50;26.00;;;;;;;;5148485;27;8804;-79
2023/12/09 18:12:11;;;;;;;;;25.50;21.25;;;;;;;;5148436;27;8774;-76
2023/12/09 18:14:36;;;;;;;;;23.75;23.75;;;;;;;;5150074;27;8796;-76
2023/12/09 18:17:02;;;;;;;;;24.50;22.75;;;;;;;;5129660;27;8847;-78
2023/12/09 18:19:27;;;;;;;;;31.00;26.25;;;;;;;;5148491;27;9593;-73
2023/12/09 18:21:52;;;;;;;;;28.00;24.50;;;;;;;;5142352;27;8920;-77
2023/12/09 18:24:18;;;;;;;;;25.25;21.75;;;;;;;;5148543;27;8804;-78
2023/12/09 18:26:44;;;;;;;;;29.00;27.75;;;;;;;;5147426;27;8824;-77
2023/12/09 18:29:09;;;;;;;;;25.75;24.00;;;;;;;;5142231;27;8782;-83
2023/12/09 18:31:35;;;;;;;;;25.50;24.00;;;;;;;;5134410;27;8778;-75
2023/12/09 18:34:00;;;;;;;;;32.25;28.75;;;;;;;;5134197;27;9583;-76
2023/12/09 18:36:25;;;;;;;;;27.50;25.75;;;;;;;;5134155;27;8797;-77
2023/12/09 18:38:51;;;;;;;;;22.25;21.75;;;;;;;;5131870;27;9214;-77
2023/12/09 18:41:16;;;;;;;;;17.25;17.25;;;;;;;;5133748;27;8769;-78
2023/12/09 18:43:41;;;;;;;;;28.00;24.50;;;;;;;;5135583;27;8786;-77
2023/12/09 18:46:07;;;;;;;;;27.75;26.00;;;;;;;;5133871;27;8812;-77
2023/12/09 18:48:32;;;;;;;;;28.75;26.50;;;;;;;;5131603;27;8805;-78
2023/12/09 18:51:03;;;;;;;;;27.50;25.00;;;;;;;;5133920;27;8797;-76
2023/12/09 18:53:29;;;;;;;;;29.50;27.75;;;;;;;;5133579;27;12319;-76
2023/12/09 18:55:54;;;;;;;;;34.25;32.50;;;;;;;;5133684;27;11441;-76
2023/12/09 18:58:20;;;;;;;;;31.50;28.00;;;;;;;;5131628;27;12285;-75
2023/12/09 19:00:45;;;;;;;;;34.75;34.50;;;;;;;;5133670;27;8834;-77
2023/12/09 19:03:10;;;;;;;;;34.75;32.75;;;;;;;;5113353;27;8809;-77
2023/12/09 19:05:36;;;;;;;;;33.75;33.75;;;;;;;;5114007;27;8927;-75
2023/12/09 19:08:01;;;;;;;;;37.25;34.50;;;;;;;;5131713;27;8964;-75
2023/12/09 19:10:27;;;;;;;;;41.00;35.75;;;;;;;;5130776;27;8810;-73
2023/12/09 19:12:53;;;;;;;;;35.50;29.25;;;;;;;;5133160;27;8890;-75
2023/12/09 19:15:18;;;;;;;;;32.75;31.50;;;;;;;;5133269;27;11443;-76
2023/12/09 19:17:45;;;;;;;;;39.00;35.75;;;;;;;;5132320;27;8810;-75
2023/12/09 19:20:11;;;;;;;;;37.00;36.00;;;;;;;;5133350;27;8774;-76
2023/12/09 19:22:37;;;;;;;;;39.50;34.25;;;;;;;;5133018;27;12182;-76
2023/12/09 19:25:02;;;;;;;;;35.00;30.00;;;;;;;;5132948;27;11445;-75
2023/12/09 19:27:28;;;;;;;;;34.00;32.00;;;;;;;;5130811;27;8908;-74
2023/12/09 19:29:53;;;;;;;;;37.25;34.75;;;;;;;;5133181;27;8786;-77
2023/12/09 19:32:18;;;;;;;;;40.50;36.25;;;;;;;;5132640;27;8801;-76
2023/12/09 19:34:44;;;;;;;;;37.25;34.00;;;;;;;;5114509;27;9527;-77
2023/12/09 19:37:10;;;;;;;;;35.75;32.25;;;;;;;;5130527;27;8829;-75
2023/12/09 19:39:35;;;;;;;;;35.00;34.25;;;;;;;;5132662;27;8762;-75
2023/12/09 19:42:00;;;;;;;;;32.50;31.75;;;;;;;;5133921;27;8797;-76
2023/12/09 19:44:25;;;;;;;;;35.50;32.00;;;;;;;;5132846;27;8778;-83
2023/12/09 19:46:51;;;;;;;;;36.75;35.25;;;;;;;;5112154;27;8802;-79
2023/12/09 19:49:16;;;;;;;;;41.50;36.75;;;;;;;;5135249;27;8786;-79
2023/12/09 19:51:42;;;;;;;;;43.25;38.75;;;;;;;;5132534;27;8782;-80
2023/12/09 19:54:07;;;;;;;;;39.00;36.00;;;;;;;;5133195;27;8778;-79
2023/12/09 19:56:32;;;;;;;;;45.75;38.75;;;;;;;;5133332;27;8793;-78
2023/12/09 19:58:57;;;;;;;;;40.50;36.50;;;;;;;;5130416;27;8794;-82
2023/12/09 20:01:23;;;;;;;;;41.50;37.00;;;;;;;;5131058;27;8933;-78
2023/12/09 20:03:48;;;;;;;;;42.00;37.50;;;;;;;;5111988;28;8784;-78
2023/12/09 20:06:14;;;;;;;;;51.50;39.00;;;;;;;;5112263;28;8775;-79
2023/12/09 20:08:39;;;;;;;;;36.75;36.25;;;;;;;;5127776;27;8794;-78
2023/12/09 20:11:05;;;;;;;;;40.75;37.00;;;;;;;;5134161;27;8873;-78
2023/12/09 20:13:30;;;;;;;;;40.25;36.25;;;;;;;;5131844;27;8790;-80
2023/12/09 20:15:55;;;;;;;;;49.25;39.75;;;;;;;;5132432;27;8858;-79
2023/12/09 20:18:21;;;;;;;;;43.50;39.25;;;;;;;;5107374;22;8880;-82
2023/12/09 20:20:46;;;;;;;;;43.50;39.50;;;;;;;;5071294;28;8872;-80
2023/12/09 20:23:11;;;;;;;;;46.50;39.50;;;;;;;;5070933;28;8828;-81
2023/12/09 20:25:37;;;;;;;;;41.50;37.50;;;;;;;;5071459;28;9596;-76
2023/12/09 20:28:04;;;;;;;;;44.25;38.25;;;;;;;;5069962;28;8828;-77
2023/12/09 20:30:29;;;;;;;;;46.00;37.50;;;;;;;;5070461;28;9603;-78
2023/12/09 20:32:55;;;;;;;;;44.50;39.25;;;;;;;;5070587;28;11512;-78
2023/12/09 20:35:20;;;;;;;;;45.75;39.00;;;;;;;;5072782;28;8846;-78
2023/12/09 20:37:46;;;;;;;;;44.00;37.75;;;;;;;;5069997;28;8820;-79
2023/12/09 20:40:11;;;;;;;;;42.50;37.00;;;;;;;;5071091;28;8807;-80
2023/12/09 20:42:36;;;;;;;;;45.00;39.50;;;;;;;;5072960;28;8800;-79
2023/12/09 20:45:02;;;;;;;;;44.25;34.75;;;;;;;;5069713;28;9630;-78
2023/12/09 20:47:28;;;;;;;;;44.00;38.50;;;;;;;;5068184;28;8801;-80
2023/12/09 20:49:53;;;;;;;;;41.00;34.25;;;;;;;;5073670;28;11621;-77
2023/12/09 20:52:19;;;;;;;;;44.50;38.25;;;;;;;;5070471;28;8937;-77
2023/12/09 20:54:45;;;;;;;;;38.25;35.50;;;;;;;;5070540;28;9506;-77
2023/12/09 20:57:10;;;;;;;;;35.00;33.00;;;;;;;;5070703;28;8929;-81
2023/12/09 20:59:36;;;;;;;;;41.00;34.75;;;;;;;;5070213;28;8804;-77
2023/12/09 21:02:01;;;;;;;;;39.50;37.50;;;;;;;;5070190;28;8796;-75
2023/12/09 21:04:26;;;;;;;;;41.25;38.00;;;;;;;;5069631;28;8792;-76
2023/12/09 21:06:52;;;;;;;;;36.50;32.00;;;;;;;;5071472;28;8812;-75
2023/12/09 21:09:17;;;;;;;;;32.00;29.50;;;;;;;;5069951;28;8788;-76
2023/12/09 21:11:42;;;;;;;;;39.50;36.50;;;;;;;;5069941;28;8834;-76
2023/12/09 21:14:08;;;;;;;;;37.00;35.25;;;;;;;;5071398;28;8804;-76
